»·PEaware :: SWA2407 KTUS-KLAS

SWA2407 :: KTUS-KLAS

FLIGHT INFORMATION

Flight Status: Arrived
Operator:
Southwest Airlines
More flights by this operator :: More flights under this callsign
Pilot: Daniel W. (24238)
Aircraft: BOEING 737-700
(B737)
More flights by this aircraft type
Origin: KTUS Tucson Intl
United States
Destination: KLAS Harry Reid Intl
United States
More flights between these airports :: More routes between these airports
Route: BURRO4 BBALL PXR J11 DRK ELLDA RKSTR3
File this flight plan on PilotEdge
Remarks: PBN / A1D1O1S2T1 NAV / RNVD1E1A1 RNP10 DAT / 1FANSE2PDC REG / N774SW EET / KZLA0034 CODE / AA7988
Altitude:
(Current/Filed)
32,000ft
Speed:
(Current/Filed)
456kts
Departed: 15-Aug-23 06:01 PM
Arrived: 15-Aug-23 07:02 PM
Distance/Time
Traveled:
316nm/1:01
Distance/Time
To Go:
Arrived

Flight Plot

Page will automatically refresh every two minutes.

Flight plan parsing failed; only flown route is shown


Map Options




Map Legend


Flown Route
Filed Route
Departure Airport
Arrival Airport
Navaid (VOR, NDB)
Fix

Horizontal Profiles

Position Reports

Time Latitude Longitude Heading Altitude Ground
Speed
15-Aug-23 17:23 32.118499 -110.937334 58 2587ft 0kts
15-Aug-23 17:24 32.118499 -110.937334 58 2592ft 0kts
15-Aug-23 17:25 32.118499 -110.937334 58 2592ft 0kts
15-Aug-23 17:26 32.118499 -110.937334 58 2592ft 0kts
15-Aug-23 17:27 32.118499 -110.937334 58 2592ft 0kts
15-Aug-23 17:28 32.118499 -110.937334 58 2592ft 0kts
15-Aug-23 17:29 32.118499 -110.937334 58 2592ft 0kts
15-Aug-23 17:30 32.118499 -110.937334 58 2592ft 0kts
15-Aug-23 17:31 32.118499 -110.937334 58 2592ft 0kts
15-Aug-23 17:32 32.118499 -110.937334 58 2592ft 0kts
15-Aug-23 17:33 32.118499 -110.937334 58 2592ft 0kts
15-Aug-23 17:34 32.118499 -110.937334 58 2592ft 0kts
15-Aug-23 17:35 32.118499 -110.937334 58 2592ft 0kts
15-Aug-23 17:36 32.118499 -110.937334 58 2592ft 0kts
15-Aug-23 17:37 32.118499 -110.937334 58 2592ft 0kts
15-Aug-23 17:38 32.118499 -110.937334 58 2592ft 0kts
15-Aug-23 17:39 32.118499 -110.937334 58 2592ft 0kts
15-Aug-23 17:40 32.118499 -110.937334 58 2592ft 0kts
15-Aug-23 17:41 32.118499 -110.937334 58 2592ft 0kts
15-Aug-23 17:42 32.118499 -110.937334 58 2592ft 0kts
15-Aug-23 17:43 32.118499 -110.937334 58 2592ft 0kts
15-Aug-23 17:44 32.118499 -110.937334 58 2592ft 0kts
15-Aug-23 17:45 32.118499 -110.937334 58 2592ft 0kts
15-Aug-23 17:46 32.118499 -110.937334 58 2592ft 0kts
15-Aug-23 17:47 32.118499 -110.937334 58 2592ft 0kts
15-Aug-23 17:48 32.118499 -110.937334 58 2592ft 0kts
15-Aug-23 17:49 32.118499 -110.937334 58 2592ft 0kts
15-Aug-23 17:50 32.118499 -110.937334 58 2592ft 0kts
15-Aug-23 17:51 32.118499 -110.937334 58 2592ft 0kts
15-Aug-23 17:52 32.118499 -110.937334 58 2592ft 0kts
15-Aug-23 17:53 32.118384 -110.937555 58 2582ft 3kts
15-Aug-23 17:54 32.118338 -110.937904 98 2590ft 0kts
15-Aug-23 17:55 32.118338 -110.937904 98 2590ft 0kts
15-Aug-23 17:56 32.118248 -110.937723 140 2585ft 3kts
15-Aug-23 17:57 32.118542 -110.939798 315 2590ft 18kts
15-Aug-23 17:58 32.123230 -110.945302 315 2572ft 25kts
15-Aug-23 17:59 32.122773 -110.947242 135 2571ft 9kts
15-Aug-23 18:00 32.102114 -110.922746 131 3541ft 161kts
15-Aug-23 18:01 32.061028 -110.875236 144 4597ft 262kts
15-Aug-23 18:02 31.997493 -110.905793 224 7675ft 286kts
15-Aug-23 18:03 31.976585 -110.991398 297 10855ft 333kts
15-Aug-23 18:04 32.027203 -111.091313 300 14002ft 364kts
15-Aug-23 18:05 32.084047 -111.193228 324 17029ft 384kts
15-Aug-23 18:06 32.187601 -111.232782 345 19759ft 400kts
15-Aug-23 18:07 32.297165 -111.268011 345 22158ft 416kts
15-Aug-23 18:08 32.411032 -111.305365 344 24247ft 432kts
15-Aug-23 18:09 32.528068 -111.343898 344 26084ft 443kts
15-Aug-23 18:10 32.648897 -111.383780 344 27761ft 456kts
15-Aug-23 18:11 32.772310 -111.424632 344 29323ft 467kts
15-Aug-23 18:12 32.899086 -111.466725 344 30687ft 476kts
15-Aug-23 18:13 33.014385 -111.535589 317 31910ft 470kts
15-Aug-23 18:14 33.112199 -111.638623 317 31924ft 469kts
15-Aug-23 18:15 33.211154 -111.740623 318 31921ft 470kts
15-Aug-23 18:16 33.310073 -111.842658 318 31926ft 470kts
15-Aug-23 18:17 33.408986 -111.944809 320 31898ft 470kts
15-Aug-23 18:18 33.527614 -112.008688 341 31896ft 472kts
15-Aug-23 18:19 33.652892 -112.057170 341 31936ft 473kts
15-Aug-23 18:20 33.778049 -112.106937 341 31934ft 474kts
15-Aug-23 18:21 33.903256 -112.156955 341 31931ft 474kts
15-Aug-23 18:22 34.028436 -112.207089 341 31970ft 475kts
15-Aug-23 18:23 34.153804 -112.257454 341 32004ft 476kts
15-Aug-23 18:24 34.279763 -112.308217 341 32046ft 476kts
15-Aug-23 18:25 34.405686 -112.359129 341 32153ft 478kts
15-Aug-23 18:26 34.531770 -112.410270 340 32268ft 478kts
15-Aug-23 18:27 34.657848 -112.461798 337 32291ft 477kts
15-Aug-23 18:28 34.736711 -112.580265 288 32258ft 464kts
15-Aug-23 18:29 34.783478 -112.727137 289 32140ft 467kts
15-Aug-23 18:30 34.831216 -112.874290 288 32082ft 468kts
15-Aug-23 18:31 34.878782 -113.021841 288 32069ft 468kts
15-Aug-23 18:32 34.926079 -113.169336 288 32056ft 468kts
15-Aug-23 18:33 34.973315 -113.317349 288 31528ft 472kts
15-Aug-23 18:34 35.055077 -113.439392 320 28646ft 468kts
15-Aug-23 18:35 35.154068 -113.536929 319 26056ft 448kts
15-Aug-23 18:36 35.248548 -113.632411 319 23500ft 436kts
15-Aug-23 18:37 35.339370 -113.724423 319 21600ft 404kts
15-Aug-23 18:38 35.426598 -113.813135 319 20656ft 407kts
15-Aug-23 18:39 35.512515 -113.900762 319 19675ft 398kts
15-Aug-23 18:40 35.597117 -113.987302 319 18684ft 395kts
15-Aug-23 18:41 35.681171 -114.073533 319 17670ft 390kts
15-Aug-23 18:42 35.760518 -114.157706 306 16687ft 353kts
15-Aug-23 18:43 35.805238 -114.258779 297 15930ft 330kts
15-Aug-23 18:44 35.836196 -114.360446 263 15161ft 314kts
15-Aug-23 18:45 35.824402 -114.465951 262 14433ft 310kts
15-Aug-23 18:46 35.812869 -114.572085 263 13732ft 314kts
15-Aug-23 18:47 35.801241 -114.678479 263 12989ft 312kts
15-Aug-23 18:48 35.789767 -114.782647 263 12283ft 302kts
15-Aug-23 18:49 35.778461 -114.884603 262 11593ft 299kts
15-Aug-23 18:50 35.771093 -114.986110 271 10896ft 298kts
15-Aug-23 18:51 35.771508 -115.088086 270 10232ft 298kts
15-Aug-23 18:52 35.771442 -115.185637 276 9491ft 268kts
15-Aug-23 18:53 35.811893 -115.257647 310 8922ft 261kts
15-Aug-23 18:54 35.859027 -115.327418 311 8285ft 267kts
15-Aug-23 18:55 35.920484 -115.347193 14 7286ft 242kts
15-Aug-23 18:57 35.986682 -115.327828 13 6013ft 243kts
15-Aug-23 18:58 36.046150 -115.309845 27 4788ft 200kts
15-Aug-23 18:59 36.073355 -115.263225 81 3898ft 149kts
15-Aug-23 19:00 36.073615 -115.214179 87 3051ft 138kts
15-Aug-23 19:01 36.073534 -115.166729 84 2322ft 138kts
15-Aug-23 19:02 36.074255 -115.139526 61 2190ft 25kts
15-Aug-23 19:03 36.077512 -115.137911 359 2188ft 12kts
15-Aug-23 19:04 36.078277 -115.141856 270 2188ft 19kts
15-Aug-23 19:05 36.079329 -115.145567 337 2186ft 7kts
15-Aug-23 19:06 36.079805 -115.145828 335 2189ft 0kts
15-Aug-23 19:07 36.079805 -115.145828 335 2189ft 0kts
15-Aug-23 19:08 36.079805 -115.145828 335 2189ft 0kts
15-Aug-23 19:09 36.079805 -115.145828 335 2186ft 0kts
15-Aug-23 19:10 36.079805 -115.145828 335 2186ft 0kts
15-Aug-23 19:11 36.079805 -115.145828 335 2186ft 0kts
15-Aug-23 19:12 36.079805 -115.145828 335 2186ft 0kts

Navigation Log

Ident Type
Flight plan parsing failed, navigation log unavailable